createdAt,value
2016-06-19T00:00:00.949Z,1012.41
2016-06-19T00:01:00.921Z,1012.39
2016-06-19T00:02:00.924Z,1012.41
2016-06-19T00:03:00.913Z,1012.41
2016-06-19T00:04:00.884Z,1012.41
2016-06-19T00:05:00.873Z,1012.42
2016-06-19T00:06:00.860Z,1012.39
2016-06-19T00:07:00.849Z,1012.38
2016-06-19T00:08:00.836Z,1012.41
2016-06-19T00:09:00.823Z,1012.41
2016-06-19T00:10:00.797Z,1012.42
2016-06-19T00:11:00.799Z,1012.42
2016-06-19T00:12:00.772Z,1012.42
2016-06-19T00:13:00.760Z,1012.46
2016-06-19T00:14:00.763Z,1012.49
2016-06-19T00:15:00.736Z,1012.48
2016-06-19T00:16:00.723Z,1012.46
2016-06-19T00:17:00.711Z,1012.47
2016-06-19T00:18:00.699Z,1012.5
2016-06-19T00:19:00.686Z,1012.49
2016-06-19T00:20:00.675Z,1012.52
2016-06-19T00:21:00.663Z,1012.49
2016-06-19T00:22:00.651Z,1012.51
2016-06-19T00:23:00.638Z,1012.48
2016-06-19T00:24:00.610Z,1012.5
2016-06-19T00:25:00.598Z,1012.5
2016-06-19T00:26:00.586Z,1012.5
2016-06-19T00:27:00.574Z,1012.5
2016-06-19T00:28:00.578Z,1012.53
2016-06-19T00:29:00.549Z,1012.55
2016-06-19T00:30:00.537Z,1012.53
2016-06-19T00:31:00.525Z,1012.51
2016-06-19T00:32:00.513Z,1012.51
2016-06-19T00:33:00.501Z,1012.47
2016-06-19T00:34:00.488Z,1012.51
2016-06-19T00:35:00.477Z,1012.49
2016-06-19T00:36:00.464Z,1012.51
2016-06-19T00:37:00.437Z,1012.53
2016-06-19T00:38:00.424Z,1012.51
2016-06-19T00:39:00.412Z,1012.54
2016-06-19T00:40:00.400Z,1012.53
2016-06-19T00:41:00.387Z,1012.49
2016-06-19T00:42:00.376Z,1012.53
2016-06-19T00:43:00.364Z,1012.52
2016-06-19T00:44:00.352Z,1012.53
2016-06-19T00:45:00.340Z,1012.52
2016-06-19T00:46:00.312Z,1012.52
2016-06-19T00:47:00.299Z,1012.54
2016-06-19T00:48:00.286Z,1012.54
2016-06-19T00:49:00.275Z,1012.53
2016-06-19T00:50:00.263Z,1012.55
2016-06-19T00:51:00.251Z,1012.57
2016-06-19T00:52:00.239Z,1012.58
2016-06-19T00:53:00.211Z,1012.57
2016-06-19T00:54:00.214Z,1012.58
2016-06-19T00:55:00.201Z,1012.59
2016-06-19T00:56:00.189Z,1012.56
2016-06-19T00:57:00.162Z,1012.6
2016-06-19T00:58:00.165Z,1012.64
2016-06-19T00:59:00.138Z,1012.65
2016-06-19T01:00:00.125Z,1012.61
2016-06-19T01:01:00.114Z,1012.57
2016-06-19T01:02:00.101Z,1012.62
2016-06-19T01:03:00.089Z,1012.64
2016-06-19T01:04:00.077Z,1012.66
2016-06-19T01:05:00.064Z,1012.67
2016-06-19T01:06:00.053Z,1012.69
2016-06-19T01:07:00.024Z,1012.69
2016-06-19T01:08:00.012Z,1012.74
2016-06-19T01:09:00.000Z,1012.72
2016-06-19T01:09:59.987Z,1012.76
2016-06-19T01:10:59.991Z,1012.72
2016-06-19T01:11:59.964Z,1012.71
2016-06-19T01:12:59.952Z,1012.7
2016-06-19T01:13:59.940Z,1012.72
2016-06-19T01:14:59.927Z,1012.75
2016-06-19T01:15:59.900Z,1012.77
2016-06-19T01:16:59.903Z,1012.73
2016-06-19T01:17:59.876Z,1012.78
2016-06-19T01:18:59.863Z,1012.8
2016-06-19T01:19:59.851Z,1012.81
2016-06-19T01:20:59.839Z,1012.78
2016-06-19T01:21:59.826Z,1012.81
2016-06-19T01:22:59.814Z,1012.81
2016-06-19T01:23:59.802Z,1012.81
2016-06-19T01:24:59.775Z,1012.84
2016-06-19T01:25:59.778Z,1012.84
2016-06-19T01:26:59.751Z,1012.85
2016-06-19T01:27:59.754Z,1012.85
2016-06-19T01:28:59.725Z,1012.81
2016-06-19T01:29:59.714Z,1012.82
2016-06-19T01:30:59.702Z,1012.87
2016-06-19T01:31:59.689Z,1012.92
2016-06-19T01:32:59.677Z,1012.91
2016-06-19T01:33:59.665Z,1012.87
2016-06-19T01:34:59.637Z,1012.97
2016-06-19T01:35:59.625Z,1012.96
2016-06-19T01:36:59.613Z,1012.95
2016-06-19T01:37:59.600Z,1012.98
2016-06-19T01:38:59.588Z,1012.95
2016-06-19T01:39:59.577Z,1012.94
2016-06-19T01:40:59.580Z,1013.02
2016-06-19T01:41:59.552Z,1012.99
2016-06-19T01:42:59.540Z,1013
2016-06-19T01:43:59.527Z,1013.03
2016-06-19T01:44:59.500Z,1013.03
2016-06-19T01:45:59.487Z,1013.03
2016-06-19T01:46:59.475Z,1013.07
2016-06-19T01:47:59.463Z,1013.04
2016-06-19T01:48:59.452Z,1013.09
2016-06-19T01:49:59.439Z,1013.09
2016-06-19T01:50:59.426Z,1013.14
2016-06-19T01:51:59.415Z,1013.15
2016-06-19T01:52:59.403Z,1013.13
2016-06-19T01:53:59.390Z,1013.13
2016-06-19T01:54:59.366Z,1013.14
2016-06-19T01:55:59.359Z,1013.16
2016-06-19T01:56:59.350Z,1013.14
2016-06-19T01:57:59.341Z,1013.14
2016-06-19T01:58:59.332Z,1013.16
2016-06-19T01:59:59.321Z,1013.17
2016-06-19T02:00:59.310Z,1013.17
2016-06-19T02:01:59.283Z,1013.17
2016-06-19T02:02:59.274Z,1013.2
2016-06-19T02:03:59.262Z,1013.21
2016-06-19T02:04:59.250Z,1013.21
2016-06-19T02:05:59.239Z,1013.19
2016-06-19T02:06:59.227Z,1013.21
2016-06-19T02:07:59.215Z,1013.21
2016-06-19T02:08:59.188Z,1013.19
2016-06-19T02:09:59.191Z,1013.18
2016-06-19T02:10:59.164Z,1013.19
2016-06-19T02:11:59.151Z,1013.23
2016-06-19T02:12:59.139Z,1013.19
2016-06-19T02:13:59.127Z,1013.23
2016-06-19T02:14:59.115Z,1013.21
2016-06-19T02:15:59.086Z,1013.21
2016-06-19T02:16:59.090Z,1013.21
2016-06-19T02:17:59.063Z,1013.22
2016-06-19T02:18:59.051Z,1013.26
2016-06-19T02:19:59.038Z,1013.27
2016-06-19T02:20:59.026Z,1013.24
2016-06-19T02:21:59.014Z,1013.29
2016-06-19T02:22:59.002Z,1013.31
2016-06-19T02:23:58.989Z,1013.29
2016-06-19T02:24:58.978Z,1013.3
2016-06-19T02:25:58.966Z,1013.32
2016-06-19T02:26:58.938Z,1013.34
2016-06-19T02:27:58.925Z,1013.36
2016-06-19T02:28:58.913Z,1013.36
2016-06-19T02:29:58.885Z,1013.35
2016-06-19T02:30:58.889Z,1013.37
2016-06-19T02:31:58.861Z,1013.38
2016-06-19T02:32:58.849Z,1013.35
2016-06-19T02:33:58.837Z,1013.34
2016-06-19T02:34:58.825Z,1013.4
2016-06-19T02:35:58.812Z,1013.39
2016-06-19T02:36:58.800Z,1013.37
2016-06-19T02:37:58.773Z,1013.39
2016-06-19T02:38:58.791Z,1013.41
2016-06-19T02:39:58.747Z,1013.37
2016-06-19T02:40:58.736Z,1013.43
2016-06-19T02:41:58.724Z,1013.42
2016-06-19T02:42:58.696Z,1013.43
2016-06-19T02:43:58.700Z,1013.4
2016-06-19T02:44:58.687Z,1013.38
2016-06-19T02:45:58.659Z,1013.4
2016-06-19T02:46:58.647Z,1013.44
2016-06-19T02:47:58.636Z,1013.43
2016-06-19T02:48:58.622Z,1013.42
2016-06-19T02:49:58.610Z,1013.4
2016-06-19T02:50:58.599Z,1013.46
2016-06-19T02:51:58.572Z,1013.43
2016-06-19T02:52:58.558Z,1013.49
2016-06-19T02:53:58.546Z,1013.46
2016-06-19T02:54:58.535Z,1013.47
2016-06-19T02:55:58.522Z,1013.49
2016-06-19T02:56:58.509Z,1013.46
2016-06-19T02:57:58.529Z,1013.46
2016-06-19T02:58:58.471Z,1013.45
2016-06-19T02:59:58.505Z,1013.42
2016-06-19T03:00:58.461Z,1013.45
2016-06-19T03:01:58.434Z,1013.47
2016-06-19T03:02:58.421Z,1013.5
2016-06-19T03:03:58.409Z,1013.51
2016-06-19T03:04:58.397Z,1013.5
2016-06-19T03:05:58.370Z,1013.54
2016-06-19T03:06:58.373Z,1013.59
2016-06-19T03:07:58.392Z,1013.59
2016-06-19T03:08:58.333Z,1013.6
2016-06-19T03:09:58.320Z,1013.57
2016-06-19T03:10:58.308Z,1013.58
2016-06-19T03:11:58.296Z,1013.58
2016-06-19T03:12:58.284Z,1013.64
2016-06-19T03:13:58.319Z,1013.62
2016-06-19T03:14:58.244Z,1013.62
2016-06-19T03:15:58.232Z,1013.64
2016-06-19T03:16:58.220Z,1013.65
2016-06-19T03:17:58.208Z,1013.69
2016-06-19T03:18:58.195Z,1013.68
2016-06-19T03:19:58.183Z,1013.74
2016-06-19T03:20:58.172Z,1013.72
2016-06-19T03:21:58.206Z,1013.73
2016-06-19T03:22:58.146Z,1013.75
2016-06-19T03:23:58.119Z,1013.74
2016-06-19T03:24:58.107Z,1013.73
2016-06-19T03:25:58.095Z,1013.75
2016-06-19T03:26:58.082Z,1013.74
2016-06-19T03:27:58.071Z,1013.73
2016-06-19T03:28:58.042Z,1013.73
2016-06-19T03:29:58.046Z,1013.78
2016-06-19T03:30:58.018Z,1013.8
2016-06-19T03:31:58.005Z,1013.8
2016-06-19T03:32:57.994Z,1013.83
2016-06-19T03:33:57.982Z,1013.82
2016-06-19T03:34:57.970Z,1013.83
2016-06-19T03:35:57.957Z,1013.82
2016-06-19T03:36:57.930Z,1013.85
2016-06-19T03:37:57.933Z,1013.85
2016-06-19T03:38:57.905Z,1013.87
2016-06-19T03:39:57.893Z,1013.88
2016-06-19T03:40:57.881Z,1013.86
2016-06-19T03:41:57.869Z,1013.89
2016-06-19T03:42:57.841Z,1013.9
2016-06-19T03:43:57.829Z,1013.97
2016-06-19T03:44:57.816Z,1014
2016-06-19T03:45:57.804Z,1014.04
2016-06-19T03:46:57.793Z,1014.04
2016-06-19T03:47:57.779Z,1014.05
2016-06-19T03:48:57.769Z,1014.06
2016-06-19T03:49:57.756Z,1014.04
2016-06-19T03:50:57.743Z,1014.08
2016-06-19T03:51:57.715Z,1014.09
2016-06-19T03:52:57.704Z,1014.1
2016-06-19T03:53:57.692Z,1014.08
2016-06-19T03:54:57.679Z,1014.1
2016-06-19T03:55:57.668Z,1014.11
2016-06-19T03:56:57.639Z,1014.15
2016-06-19T03:57:57.628Z,1014.19
2016-06-19T03:58:57.615Z,1014.19
2016-06-19T03:59:57.603Z,1014.2
2016-06-19T04:00:57.591Z,1014.22
2016-06-19T04:01:57.578Z,1014.23
2016-06-19T04:02:57.567Z,1014.26
2016-06-19T04:03:57.538Z,1014.33
2016-06-19T04:04:57.527Z,1014.37
2016-06-19T04:05:57.530Z,1014.37
2016-06-19T04:06:57.502Z,1014.4
2016-06-19T04:07:57.490Z,1014.36
2016-06-19T04:08:57.478Z,1014.38
2016-06-19T04:09:57.466Z,1014.38
2016-06-19T04:10:57.454Z,1014.39
2016-06-19T04:11:57.428Z,1014.37
2016-06-19T04:12:57.418Z,1014.37
2016-06-19T04:13:57.406Z,1014.36
2016-06-19T04:14:57.396Z,1014.36
2016-06-19T04:15:57.385Z,1014.41
2016-06-19T04:16:57.374Z,1014.42
2016-06-19T04:17:57.347Z,1014.43
2016-06-19T04:18:57.350Z,1014.46
2016-06-19T04:19:57.324Z,1014.45
2016-06-19T04:20:57.312Z,1014.46
2016-06-19T04:21:57.300Z,1014.52
2016-06-19T04:22:57.287Z,1014.52
2016-06-19T04:23:57.276Z,1014.53
2016-06-19T04:24:57.264Z,1014.54
2016-06-19T04:25:57.251Z,1014.56
2016-06-19T04:26:57.223Z,1014.56
2016-06-19T04:27:57.211Z,1014.57
2016-06-19T04:28:57.199Z,1014.63
2016-06-19T04:29:57.187Z,1014.62
2016-06-19T04:30:57.175Z,1014.66
2016-06-19T04:31:57.162Z,1014.68
2016-06-19T04:32:57.135Z,1014.71
2016-06-19T04:33:57.123Z,1014.66
2016-06-19T04:34:57.110Z,1014.69
2016-06-19T04:35:57.098Z,1014.7
2016-06-19T04:36:57.086Z,1014.71
2016-06-19T04:37:57.075Z,1014.72
2016-06-19T04:38:57.061Z,1014.71
2016-06-19T04:39:57.034Z,1014.69
2016-06-19T04:40:57.038Z,1014.71
2016-06-19T04:41:57.009Z,1014.74
2016-06-19T04:42:56.998Z,1014.74
2016-06-19T04:43:56.986Z,1014.75
2016-06-19T04:44:56.973Z,1014.73
2016-06-19T04:45:56.961Z,1014.73
2016-06-19T04:46:56.949Z,1014.79
2016-06-19T04:47:56.937Z,1014.77
2016-06-19T04:48:56.908Z,1014.79
2016-06-19T04:49:56.912Z,1014.81
2016-06-19T04:50:56.884Z,1014.81
2016-06-19T04:51:56.873Z,1014.8
2016-06-19T04:52:56.860Z,1014.79
2016-06-19T04:53:56.847Z,1014.8
2016-06-19T04:54:56.836Z,1014.81
2016-06-19T04:55:56.824Z,1014.84
2016-06-19T04:56:56.796Z,1014.85
2016-06-19T04:57:56.783Z,1014.87
2016-06-19T04:58:56.818Z,1014.84
2016-06-19T04:59:56.759Z,1014.87
2016-06-19T05:00:56.747Z,1014.92
2016-06-19T05:01:56.736Z,1014.91
2016-06-19T05:02:56.723Z,1014.94
2016-06-19T05:03:56.710Z,1014.97
2016-06-19T05:04:56.714Z,1015
2016-06-19T05:05:56.671Z,1015
2016-06-19T05:06:56.690Z,1015.02
2016-06-19T05:07:56.646Z,1015
2016-06-19T05:08:56.634Z,1015
2016-06-19T05:09:56.622Z,1015.07
2016-06-19T05:10:56.595Z,1015.08
2016-06-19T05:11:56.582Z,1015.08
2016-06-19T05:12:56.632Z,1015.13
2016-06-19T05:13:56.574Z,1015.16
2016-06-19T05:14:56.545Z,1015.15
2016-06-19T05:15:56.534Z,1015.22
2016-06-19T05:16:56.521Z,1015.18
2016-06-19T05:17:56.509Z,1015.2
2016-06-19T05:18:56.497Z,1015.18
2016-06-19T05:19:56.484Z,1015.19
2016-06-19T05:20:56.473Z,1015.24
2016-06-19T05:21:56.461Z,1015.22
2016-06-19T05:22:56.433Z,1015.22
2016-06-19T05:23:56.421Z,1015.25
2016-06-19T05:24:56.424Z,1015.23
2016-06-19T05:25:56.396Z,1015.25
2016-06-19T05:26:56.384Z,1015.3
2016-06-19T05:27:56.372Z,1015.27
2016-06-19T05:28:56.360Z,1015.28
2016-06-19T05:29:56.347Z,1015.26
2016-06-19T05:30:56.335Z,1015.29
2016-06-19T05:31:56.324Z,1015.29
2016-06-19T05:32:56.308Z,1015.32
2016-06-19T05:33:56.279Z,1015.32
2016-06-19T05:34:56.268Z,1015.35
2016-06-19T05:35:56.256Z,1015.35
2016-06-19T05:36:56.243Z,1015.31
2016-06-19T05:37:56.232Z,1015.37
2016-06-19T05:38:56.218Z,1015.35
2016-06-19T05:39:56.206Z,1015.35
2016-06-19T05:40:56.195Z,1015.38
2016-06-19T05:41:56.183Z,1015.38
2016-06-19T05:42:56.170Z,1015.39
2016-06-19T05:43:56.143Z,1015.38
2016-06-19T05:44:56.130Z,1015.4
2016-06-19T05:45:56.134Z,1015.45
2016-06-19T05:46:56.105Z,1015.47
2016-06-19T05:47:56.094Z,1015.47
2016-06-19T05:48:56.082Z,1015.47
2016-06-19T05:49:56.069Z,1015.47
2016-06-19T05:50:56.057Z,1015.49
2016-06-19T05:51:56.045Z,1015.48
2016-06-19T05:52:56.034Z,1015.44
2016-06-19T05:53:56.020Z,1015.53
2016-06-19T05:54:56.009Z,1015.52
2016-06-19T05:55:55.996Z,1015.5
2016-06-19T05:56:55.969Z,1015.53
2016-06-19T05:57:55.957Z,1015.51
2016-06-19T05:58:55.944Z,1015.55
2016-06-19T05:59:55.948Z,1015.51
2016-06-19T06:00:55.919Z,1015.54
2016-06-19T06:01:55.907Z,1015.55
2016-06-19T06:02:55.896Z,1015.52
2016-06-19T06:03:55.883Z,1015.56
2016-06-19T06:04:55.871Z,1015.57
2016-06-19T06:05:55.859Z,1015.59
2016-06-19T06:06:55.846Z,1015.62
2016-06-19T06:07:55.835Z,1015.64
2016-06-19T06:08:55.807Z,1015.64
2016-06-19T06:09:55.795Z,1015.63
2016-06-19T06:10:55.798Z,1015.64
2016-06-19T06:11:55.771Z,1015.64
2016-06-19T06:12:55.759Z,1015.67
2016-06-19T06:13:55.762Z,1015.66
2016-06-19T06:14:55.735Z,1015.65
2016-06-19T06:15:55.722Z,1015.69
2016-06-19T06:16:55.709Z,1015.71
2016-06-19T06:17:55.698Z,1015.7
2016-06-19T06:18:55.685Z,1015.72
2016-06-19T06:19:55.673Z,1015.7
2016-06-19T06:20:55.661Z,1015.71
2016-06-19T06:21:55.648Z,1015.74
2016-06-19T06:22:55.621Z,1015.73
2016-06-19T06:23:55.608Z,1015.76
2016-06-19T06:24:55.597Z,1015.76
2016-06-19T06:25:55.585Z,1015.79
2016-06-19T06:26:55.572Z,1015.83
2016-06-19T06:27:55.576Z,1015.84
2016-06-19T06:28:55.554Z,1015.87
2016-06-19T06:29:55.548Z,1015.89
2016-06-19T06:30:55.542Z,1015.87
2016-06-19T06:31:55.535Z,1015.91
2016-06-19T06:32:55.528Z,1015.93
2016-06-19T06:33:55.518Z,1015.93
2016-06-19T06:34:55.493Z,1015.94
2016-06-19T06:35:55.483Z,1016.01
2016-06-19T06:36:55.489Z,1016.03
2016-06-19T06:37:55.479Z,1016
2016-06-19T06:38:55.451Z,1016
2016-06-19T06:39:55.441Z,1016.03
2016-06-19T06:40:55.429Z,1016
2016-06-19T06:41:55.418Z,1016.05
2016-06-19T06:42:55.407Z,1016.05
2016-06-19T06:43:55.409Z,1016.09
2016-06-19T06:44:55.397Z,1016.04
2016-06-19T06:45:55.369Z,1016.06
2016-06-19T06:46:55.374Z,1016.07
2016-06-19T06:47:55.361Z,1016.04
2016-06-19T06:48:55.349Z,1016.04
2016-06-19T06:49:55.322Z,1016.05
2016-06-19T06:50:55.325Z,1016.04
2016-06-19T06:51:55.296Z,1016.01
2016-06-19T06:52:55.285Z,1016
2016-06-19T06:53:55.288Z,1016.01
2016-06-19T06:54:55.260Z,1016.02
2016-06-19T06:55:55.248Z,1016.03
2016-06-19T06:56:55.252Z,1016.08
2016-06-19T06:57:55.239Z,1016.12
2016-06-19T06:58:55.212Z,1016.09
2016-06-19T06:59:55.215Z,1016.15
2016-06-19T07:00:55.188Z,1016.16
2016-06-19T07:01:55.191Z,1016.18
2016-06-19T07:02:55.178Z,1016.16
2016-06-19T07:03:55.151Z,1016.14
2016-06-19T07:04:55.138Z,1016.11
2016-06-19T07:05:55.142Z,1016.12
2016-06-19T07:06:55.130Z,1016.12
2016-06-19T07:07:55.118Z,1016.11
2016-06-19T07:08:55.106Z,1016.13
2016-06-19T07:09:55.093Z,1016.14
2016-06-19T07:10:55.081Z,1016.15
2016-06-19T07:11:55.068Z,1016.15
2016-06-19T07:12:55.057Z,1016.16
2016-06-19T07:13:55.045Z,1016.21
2016-06-19T07:14:55.017Z,1016.25
2016-06-19T07:15:55.004Z,1016.29
2016-06-19T07:16:55.007Z,1016.27
2016-06-19T07:17:54.996Z,1016.26
2016-06-19T07:18:54.984Z,1016.29
2016-06-19T07:19:54.971Z,1016.31
2016-06-19T07:20:54.960Z,1016.26
2016-06-19T07:21:54.948Z,1016.31
2016-06-19T07:22:54.935Z,1016.33
2016-06-19T07:23:54.923Z,1016.33
2016-06-19T07:24:54.910Z,1016.33
2016-06-19T07:25:54.899Z,1016.34
2016-06-19T07:26:54.886Z,1016.33
2016-06-19T07:27:54.890Z,1016.36
2016-06-19T07:28:54.863Z,1016.38
2016-06-19T07:29:54.865Z,1016.39
2016-06-19T07:30:54.838Z,1016.42
2016-06-19T07:31:54.826Z,1016.39
2016-06-19T07:32:54.813Z,1016.4
2016-06-19T07:33:54.817Z,1016.41
2016-06-19T07:34:54.805Z,1016.44
2016-06-19T07:35:54.777Z,1016.44
2016-06-19T07:36:54.796Z,1016.43
2016-06-19T07:37:54.752Z,1016.42
2016-06-19T07:38:54.756Z,1016.41
2016-06-19T07:39:54.744Z,1016.35
2016-06-19T07:40:54.732Z,1016.42
2016-06-19T07:41:54.719Z,1016.37
2016-06-19T07:42:54.723Z,1016.39
2016-06-19T07:43:54.695Z,1016.38
2016-06-19T07:44:54.682Z,1016.4
2016-06-19T07:45:54.671Z,1016.41
2016-06-19T07:46:54.690Z,1016.48
2016-06-19T07:47:54.647Z,1016.49
2016-06-19T07:48:54.682Z,1016.52
2016-06-19T07:49:54.622Z,1016.52
2016-06-19T07:50:54.672Z,1016.54
2016-06-19T07:51:54.613Z,1016.49
2016-06-19T07:52:54.601Z,1016.48
2016-06-19T07:53:54.589Z,1016.49
2016-06-19T07:54:54.577Z,1016.54
2016-06-19T07:55:54.565Z,1016.52
2016-06-19T07:56:54.553Z,1016.58
2016-06-19T07:57:54.541Z,1016.57
2016-06-19T07:58:54.528Z,1016.54
2016-06-19T07:59:54.532Z,1016.58
2016-06-19T08:00:54.520Z,1016.57
2016-06-19T08:01:54.507Z,1016.58
2016-06-19T08:02:54.495Z,1016.56
2016-06-19T08:03:54.483Z,1016.57
2016-06-19T08:04:54.471Z,1016.57
2016-06-19T08:05:54.459Z,1016.55
2016-06-19T08:06:54.463Z,1016.57
2016-06-19T08:07:54.451Z,1016.54
2016-06-19T08:08:54.422Z,1016.57
2016-06-19T08:09:54.427Z,1016.55
2016-06-19T08:10:54.413Z,1016.57
2016-06-19T08:11:54.401Z,1016.58
2016-06-19T08:12:54.389Z,1016.59
2016-06-19T08:13:54.393Z,1016.64
2016-06-19T08:14:54.366Z,1016.57
2016-06-19T08:15:54.353Z,1016.61
2016-06-19T08:16:54.341Z,1016.57
2016-06-19T08:17:54.328Z,1016.62
2016-06-19T08:18:54.316Z,1016.64
2016-06-19T08:19:54.320Z,1016.66
2016-06-19T08:20:54.307Z,1016.66
2016-06-19T08:21:54.296Z,1016.67
2016-06-19T08:22:54.283Z,1016.67
2016-06-19T08:23:54.256Z,1016.66
2016-06-19T08:24:54.259Z,1016.68
2016-06-19T08:25:54.246Z,1016.71
2016-06-19T08:26:54.235Z,1016.69
2016-06-19T08:27:54.222Z,1016.67
2016-06-19T08:28:54.226Z,1016.64
2016-06-19T08:29:54.198Z,1016.61
2016-06-19T08:30:54.186Z,1016.62
2016-06-19T08:31:54.174Z,1016.62
2016-06-19T08:32:54.162Z,1016.64
2016-06-19T08:33:54.165Z,1016.62
2016-06-19T08:34:54.138Z,1016.62
2016-06-19T08:35:54.125Z,1016.62
2016-06-19T08:36:54.112Z,1016.64
2016-06-19T08:37:54.101Z,1016.64
2016-06-19T08:38:54.088Z,1016.64
2016-06-19T08:39:54.077Z,1016.68
2016-06-19T08:40:54.081Z,1016.65
2016-06-19T08:41:54.052Z,1016.71
2016-06-19T08:42:54.040Z,1016.7
2016-06-19T08:43:54.027Z,1016.73
2016-06-19T08:44:54.017Z,1016.72
2016-06-19T08:45:54.009Z,1016.75
2016-06-19T08:46:53.999Z,1016.73
2016-06-19T08:47:53.990Z,1016.77
2016-06-19T08:48:53.980Z,1016.74
2016-06-19T08:49:53.969Z,1016.77
2016-06-19T08:50:53.958Z,1016.78
2016-06-19T08:51:53.947Z,1016.81
2016-06-19T08:52:53.951Z,1016.8
2016-06-19T08:53:53.940Z,1016.83
2016-06-19T08:54:53.929Z,1016.88
2016-06-19T08:55:53.902Z,1016.88
2016-06-19T08:56:53.906Z,1016.86
2016-06-19T08:57:53.877Z,1016.86
2016-06-19T08:58:53.882Z,1016.89
2016-06-19T08:59:53.870Z,1016.87
2016-06-19T09:00:53.858Z,1016.86
2016-06-19T09:01:53.845Z,1016.89
2016-06-19T09:02:53.834Z,1016.88
2016-06-19T09:03:53.837Z,1016.84
2016-06-19T09:04:53.824Z,1016.86
2016-06-19T09:05:53.797Z,1016.85
2016-06-19T09:06:53.784Z,1016.86
2016-06-19T09:07:53.788Z,1016.88
2016-06-19T09:08:53.776Z,1016.89
2016-06-19T09:09:53.748Z,1016.89
2016-06-19T09:10:53.736Z,1016.85
2016-06-19T09:11:53.739Z,1016.9
2016-06-19T09:12:53.727Z,1016.89
2016-06-19T09:13:53.715Z,1016.92
2016-06-19T09:14:53.719Z,1016.92
2016-06-19T09:15:53.690Z,1016.94
2016-06-19T09:16:53.694Z,1016.95
2016-06-19T09:17:53.667Z,1016.98
2016-06-19T09:18:53.654Z,1016.93
2016-06-19T09:19:53.658Z,1016.99
2016-06-19T09:20:53.630Z,1017.01
2016-06-19T09:21:53.634Z,1016.99
2016-06-19T09:22:53.621Z,1016.99
2016-06-19T09:23:53.609Z,1017.06
2016-06-19T09:24:53.596Z,1017.05
2016-06-19T09:25:53.585Z,1017.04
2016-06-19T09:26:53.573Z,1017.06
2016-06-19T09:27:53.560Z,1017.1
2016-06-19T09:28:53.549Z,1017.12
2016-06-19T09:29:53.535Z,1017.12
2016-06-19T09:30:53.539Z,1017.12
2016-06-19T09:31:53.512Z,1017.17
2016-06-19T09:32:53.500Z,1017.16
2016-06-19T09:33:53.488Z,1017.12
2016-06-19T09:34:53.492Z,1017.13
2016-06-19T09:35:53.478Z,1017.13
2016-06-19T09:36:53.466Z,1017.14
2016-06-19T09:37:53.454Z,1017.14
2016-06-19T09:38:53.442Z,1017.13
2016-06-19T09:39:53.431Z,1017.12
2016-06-19T09:40:53.417Z,1017.12
2016-06-19T09:41:53.405Z,1017.15
2016-06-19T09:42:53.394Z,1017.11
2016-06-19T09:43:53.381Z,1017.13
2016-06-19T09:44:53.369Z,1017.18
2016-06-19T09:45:53.357Z,1017.19
2016-06-19T09:46:53.345Z,1017.21
2016-06-19T09:47:53.348Z,1017.35
2016-06-19T09:48:53.336Z,1017.24
2016-06-19T09:49:53.324Z,1017.25
2016-06-19T09:50:53.311Z,1017.25
2016-06-19T09:51:53.300Z,1017.24
2016-06-19T09:52:53.288Z,1017.26
2016-06-19T09:53:53.275Z,1017.28
2016-06-19T09:54:53.263Z,1017.24
2016-06-19T09:55:53.314Z,1017.25
2016-06-19T09:56:53.254Z,1017.26
2016-06-19T09:57:53.243Z,1017.24
2016-06-19T09:58:53.230Z,1017.28
2016-06-19T09:59:53.218Z,1017.27
2016-06-19T10:00:53.206Z,1017.26
2016-06-19T10:01:53.193Z,1017.26
2016-06-19T10:02:53.228Z,1017.25
2016-06-19T10:03:53.170Z,1017.23
2016-06-19T10:04:53.173Z,1017.24
2016-06-19T10:05:53.145Z,1017.25
2016-06-19T10:06:53.133Z,1017.31
2016-06-19T10:07:53.120Z,1017.28
2016-06-19T10:08:53.171Z,1017.29
2016-06-19T10:09:53.112Z,1017.26
2016-06-19T10:10:53.100Z,1017.28
2016-06-19T10:11:53.087Z,1017.28
2016-06-19T10:12:53.075Z,1017.3
2016-06-19T10:13:53.079Z,1017.31
2016-06-19T10:14:53.051Z,1017.33
2016-06-19T10:15:53.055Z,1017.32
2016-06-19T10:16:53.042Z,1017.26
2016-06-19T10:17:53.030Z,1017.26
2016-06-19T10:18:53.033Z,1017.25
2016-06-19T10:19:53.006Z,1017.27
2016-06-19T10:20:52.993Z,1017.24
2016-06-19T10:21:52.997Z,1017.29
2016-06-19T10:22:52.985Z,1017.24
2016-06-19T10:23:52.973Z,1017.24
2016-06-19T10:24:52.961Z,1017.22
2016-06-19T10:25:52.948Z,1017.24
2016-06-19T10:26:52.952Z,1017.27
2016-06-19T10:27:52.939Z,1017.29
2016-06-19T10:28:52.928Z,1017.3
2016-06-19T10:29:52.915Z,1017.26
2016-06-19T10:30:52.903Z,1017.27
2016-06-19T10:31:52.907Z,1017.27
2016-06-19T10:32:52.895Z,1017.26
2016-06-19T10:33:52.883Z,1017.29
2016-06-19T10:34:52.871Z,1017.32
2016-06-19T10:35:52.858Z,1017.31
2016-06-19T10:36:52.862Z,1017.33
2016-06-19T10:37:52.849Z,1017.36
2016-06-19T10:38:52.837Z,1017.38
2016-06-19T10:39:52.825Z,1017.38
2016-06-19T10:40:52.812Z,1017.4
2016-06-19T10:41:52.816Z,1017.43
2016-06-19T10:42:52.789Z,1017.39
2016-06-19T10:43:52.792Z,1017.38
2016-06-19T10:44:52.781Z,1017.41
2016-06-19T10:45:52.767Z,1017.42
2016-06-19T10:46:52.771Z,1017.48
2016-06-19T10:47:52.743Z,1017.47
2016-06-19T10:48:52.747Z,1017.46
2016-06-19T10:49:52.735Z,1017.45
2016-06-19T10:50:52.722Z,1017.45
2016-06-19T10:51:52.711Z,1017.46
2016-06-19T10:52:52.697Z,1017.48
2016-06-19T10:53:52.702Z,1017.48
2016-06-19T10:54:52.674Z,1017.48
2016-06-19T10:55:52.693Z,1017.48
2016-06-19T10:56:52.649Z,1017.46
2016-06-19T10:57:52.653Z,1017.48
2016-06-19T10:58:52.641Z,1017.52
2016-06-19T10:59:52.628Z,1017.47
2016-06-19T11:00:52.617Z,1017.47
2016-06-19T11:01:52.606Z,1017.49
2016-06-19T11:02:52.596Z,1017.47
2016-06-19T11:03:52.585Z,1017.5
2016-06-19T11:04:52.590Z,1017.54
2016-06-19T11:05:52.563Z,1017.52
2016-06-19T11:06:52.567Z,1017.48
2016-06-19T11:07:52.555Z,1017.49
2016-06-19T11:08:52.543Z,1017.47
2016-06-19T11:09:52.532Z,1017.55
2016-06-19T11:10:52.520Z,1017.52
2016-06-19T11:11:52.509Z,1017.53
2016-06-19T11:12:52.497Z,1017.51
2016-06-19T11:13:52.484Z,1017.51
2016-06-19T11:14:52.489Z,1017.54
2016-06-19T11:15:52.477Z,1017.51
2016-06-19T11:16:52.464Z,1017.46
2016-06-19T11:17:52.452Z,1017.47
2016-06-19T11:18:52.440Z,1017.48
2016-06-19T11:19:52.444Z,1017.52
2016-06-19T11:20:52.431Z,1017.54
2016-06-19T11:21:52.435Z,1017.49
2016-06-19T11:22:52.407Z,1017.56
2016-06-19T11:23:52.411Z,1017.53
2016-06-19T11:24:52.414Z,1017.54
2016-06-19T11:25:52.386Z,1017.56
2016-06-19T11:26:52.390Z,1017.56
2016-06-19T11:27:52.378Z,1017.61
2016-06-19T11:28:52.365Z,1017.62
2016-06-19T11:29:52.368Z,1017.61
2016-06-19T11:30:52.357Z,1017.62
2016-06-19T11:31:52.344Z,1017.65
2016-06-19T11:32:52.348Z,1017.65
2016-06-19T11:33:52.336Z,1017.63
2016-06-19T11:34:52.323Z,1017.54
2016-06-19T11:35:52.327Z,1017.58
2016-06-19T11:36:52.314Z,1017.59
2016-06-19T11:37:52.303Z,1017.58
2016-06-19T11:38:52.290Z,1017.59
2016-06-19T11:39:52.294Z,1017.63
2016-06-19T11:40:52.297Z,1017.6
2016-06-19T11:41:52.300Z,1017.59
2016-06-19T11:42:52.274Z,1017.58
2016-06-19T11:43:52.277Z,1017.58
2016-06-19T11:44:52.264Z,1017.58
2016-06-19T11:45:52.253Z,1017.58
2016-06-19T11:46:52.256Z,1017.57
2016-06-19T11:47:52.244Z,1017.53
2016-06-19T11:48:52.231Z,1017.58
2016-06-19T11:49:52.234Z,1017.55
2016-06-19T11:50:52.223Z,1017.56
2016-06-19T11:51:52.210Z,1017.58
2016-06-19T11:52:52.213Z,1017.55
2016-06-19T11:53:52.202Z,1017.53
2016-06-19T11:54:52.190Z,1017.52
2016-06-19T11:55:52.178Z,1017.55
2016-06-19T11:56:52.181Z,1017.57
2016-06-19T11:57:52.185Z,1017.54
2016-06-19T11:58:52.187Z,1017.49
2016-06-19T11:59:52.160Z,1017.47
2016-06-19T12:00:52.164Z,1017.5
2016-06-19T12:01:52.151Z,1017.45
2016-06-19T12:02:52.154Z,1017.43
2016-06-19T12:03:52.143Z,1017.47
2016-06-19T12:04:52.131Z,1017.49
2016-06-19T12:05:52.118Z,1017.43
2016-06-19T12:06:52.106Z,1017.46
2016-06-19T12:07:52.110Z,1017.5